Terminal Aerodrome Forecast
Issued by NWS Wilmington, NC

Home | Current Version | Previous Version | Text Only | Print | Product List | Glossary On
Versions: 1 2 3 4 5 6 7 8 9 10 11 12 13 14 15 16 17 18 19 20 21 22 23 24 25 26 27 28 29 30 31 32 33
000
FTUS42 KILM 231100
TAFFLO
TAF
KFLO 231120Z 2312/2412 00000KT 2SM BR BKN008
      TEMPO 2312/2313 1/4SM FG VV002
     FM231500 22006KT P6SM SCT015 SCT120
     FM231900 21007KT P6SM VCTS BKN040CB
     FM240100 21007KT P6SM FEW030 SCT200
     FM240600 VRB03KT 5SM BR SKC=

USA.gov is the U.S. government's official web portal to all federal, state and local government web resources and services.